• Join FlightAware (Why Join?)
  • Login
  • US Flag 
01:11AM EDT


 

Airport Tracker/Info


-or-


 

Live Flight TrackerFlight Track Log ✈ SLI2311 ✈ 04-Jul-2013 ✈ MMGL / GDL - MMCL / CUL

Flight Track Log - Related Links

Times and Time Zones

All times are in EDT time to prevent confusion due to time zone crossing. See the SLI2311 flight status page for this flight to view local times or setup timezone preferences in your user account.

Time Position Orientation Groundspeed Altitude Reporting Facility
EDT Latitude Longitude Course Direction KTS MPH feet Rate Location/Type
05:31PM 20.7478 -103.5242 319° Northwest  Level Estimated
05:32PM 20.8230 -103.5953 319° Northwest  Level Estimated
05:33PM 20.8983 -103.6666 319° Northwest  Level Estimated
05:34PM 20.9734 -103.7378 318° Northwest  Level Estimated
05:35PM 21.0486 -103.8092 318° Northwest  Level Estimated
05:36PM 21.1238 -103.8806 318° Northwest  Level Estimated
05:37PM 21.1989 -103.9521 318° Northwest  Level Estimated
05:38PM 21.2740 -104.0237 318° Northwest  Level Estimated
05:39PM 21.3490 -104.0954 318° Northwest  Level Estimated
05:40PM 21.4240 -104.1671 318° Northwest  Level Estimated
05:41PM 21.4990 -104.2389 318° Northwest  Level Estimated
05:42PM 21.5740 -104.3108 318° Northwest  Level Estimated
05:43PM 21.6489 -104.3827 318° Northwest  Level Estimated
05:44PM 21.7238 -104.4548 318° Northwest  Level Estimated
05:45PM 21.7987 -104.5268 318° Northwest  Level Estimated
05:46PM 21.8735 -104.5990 318° Northwest  Level Estimated
05:47PM 21.9483 -104.6713 318° Northwest  Level Estimated
05:48PM 22.0231 -104.7436 318° Northwest  Level Estimated
05:49PM 22.0978 -104.8160 318° Northwest  Level Estimated
05:50PM 22.1725 -104.8885 318° Northwest  Level Estimated
05:51PM 22.2472 -104.9610 318° Northwest  Level Estimated
05:52PM 22.3218 -105.0337 318° Northwest  Level Estimated
05:53PM 22.3965 -105.1064 318° Northwest  Level Estimated
05:54PM 22.4710 -105.1792 318° Northwest  Level Estimated
05:55PM 22.5456 -105.2520 318° Northwest  Level Estimated
05:56PM 22.6201 -105.3250 318° Northwest  Level Estimated
05:57PM 22.6946 -105.3980 318° Northwest  Level Estimated
05:58PM 22.7690 -105.4711 318° Northwest  Level Estimated
05:59PM 22.8434 -105.5443 318° Northwest  Level Estimated
06:00PM 22.9178 -105.6176 318° Northwest  Level Estimated
06:01PM 22.9922 -105.6909 318° Northwest  Level Estimated
06:02PM 23.0665 -105.7643 318° Northwest  Level Estimated
06:03PM 23.1408 -105.8378 318° Northwest  Level Estimated
06:04PM 23.2150 -105.9114 318° Northwest  Level Estimated
06:05PM 23.2892 -105.9851 318° Northwest  Level Estimated
06:06PM 23.3634 -106.0588 318° Northwest  Level Estimated
06:07PM 23.4375 -106.1327 318° Northwest  Level Estimated
06:08PM 23.5117 -106.2066 318° Northwest  Level Estimated
06:09PM 23.5857 -106.2806 318° Northwest  Level Estimated
06:10PM 23.6598 -106.3547 318° Northwest  Level Estimated
06:11PM 23.7338 -106.4288 317° Northwest  Level Estimated
06:12PM 23.8077 -106.5031 317° Northwest  Level Estimated
06:13PM 23.8817 -106.5774 317° Northwest  Level Estimated
06:14PM 23.9556 -106.6518 317° Northwest  Level Estimated
06:15PM 24.0294 -106.7264 317° Northwest  Level Estimated
06:16PM 24.1032 -106.8009 317° Northwest  Level Estimated
06:17PM 24.1770 -106.8756 317° Northwest  Level Estimated
06:18PM 24.2508 -106.9504 317° Northwest  Level Estimated
06:19PM 24.3245 -107.0253 317° Northwest  Level Estimated
06:20PM 24.3982 -107.1002 317° Northwest  Level Estimated
06:21PM 24.4718 -107.1752 317° Northwest  Level Estimated
06:22PM 24.5454 -107.2503 317° Northwest  Level Estimated
06:23PM 24.6190 -107.3255 317° Northwest  Level Estimated
06:24PM 24.6925 -107.4008 317° Northwest  Level Estimated
06:25PM 24.7645 -107.4747 317° Northwest  Level Estimated
06:26PM 24.7645 -107.4747 138° Southeast  Level Estimated
06:27PM 24.7645 -107.4747 138° Southeast  Level Estimated
06:28PM 24.7645 -107.4747 138° Southeast  Level Estimated
06:29PM 24.7645 -107.4747 138° Southeast  Level Estimated
06:30PM 24.7645 -107.4747 138° Southeast  Level Estimated
06:31PM 24.7645 -107.4747 138° Southeast  Level Estimated
06:32PM 24.7645 -107.4747 138° Southeast  Level Estimated
06:33PM 24.7645 -107.4747 138° Southeast  Level Estimated